createdAt,value
2022-12-22T00:02:33.506Z,100142.88
2022-12-22T00:05:18.760Z,100153.19
2022-12-22T00:08:03.754Z,100147.16
2022-12-22T00:10:48.858Z,100131.69
2022-12-22T00:13:34.364Z,100127.34
2022-12-22T00:16:19.484Z,100123.16
2022-12-22T00:19:04.710Z,100123.16
2022-12-22T00:21:49.827Z,100116.19
2022-12-22T00:24:34.923Z,100113.59
2022-12-22T00:27:19.871Z,100113.59
2022-12-22T00:30:05.062Z,100111.84
2022-12-22T00:32:54.731Z,100107.63
2022-12-22T00:35:41.288Z,100093.88
2022-12-22T00:38:32.001Z,100093.06
2022-12-22T00:41:17.158Z,100097.44
2022-12-22T00:44:02.104Z,100091.34
2022-12-22T00:46:47.123Z,100074.28
2022-12-22T00:49:32.701Z,100070.88
2022-12-22T00:52:17.733Z,100070.06
2022-12-22T00:55:02.782Z,100070.06
2022-12-22T00:57:47.776Z,100077.13
2022-12-22T01:00:37.017Z,100071.22
2022-12-22T01:03:22.713Z,100069.53
2022-12-22T01:06:07.741Z,100063.56
2022-12-22T01:08:53.804Z,100052.47
2022-12-22T01:11:39.293Z,100054.19
2022-12-22T01:14:28.833Z,100052.53
2022-12-22T01:17:13.996Z,100050.91
2022-12-22T01:19:58.904Z,100052.59
2022-12-22T01:22:45.459Z,100055.13
2022-12-22T01:25:35.776Z,100052.81
2022-12-22T01:28:21.297Z,100051.13
2022-12-22T01:31:06.946Z,100051.94
2022-12-22T01:33:52.106Z,100050.31
2022-12-22T01:36:37.054Z,100046.03
2022-12-22T01:39:22.105Z,100046.03
2022-12-22T01:42:08.059Z,100031.38
2022-12-22T01:44:53.047Z,100027.06
2022-12-22T01:47:47.300Z,100022.94
2022-12-22T01:50:52.767Z,100017.91
2022-12-22T01:53:40.070Z,100022.25
2022-12-22T01:56:25.000Z,100013.59
2022-12-22T01:59:13.122Z,100005.03
2022-12-22T02:01:59.480Z,99999.88
2022-12-22T02:04:47.548Z,100001.63
2022-12-22T02:07:42.172Z,99999.06
2022-12-22T02:10:38.600Z,100000.81
2022-12-22T02:13:36.586Z,99986.31
2022-12-22T02:16:42.280Z,99991.47
2022-12-22T02:19:54.966Z,99986.53
2022-12-22T02:23:00.704Z,99980.47
2022-12-22T02:25:51.753Z,99984.69
2022-12-22T02:28:36.772Z,99987.31
2022-12-22T02:31:21.846Z,99981.28
2022-12-22T02:34:06.991Z,99983.16
2022-12-22T02:37:15.649Z,99972.84
2022-12-22T02:40:16.309Z,99973.72
2022-12-22T02:43:16.625Z,99967.69
2022-12-22T02:46:19.061Z,99953.97
2022-12-22T02:49:09.210Z,99954.97
2022-12-22T02:52:01.484Z,99949.81
2022-12-22T02:54:47.435Z,99944.72
2022-12-22T02:57:35.448Z,99941.41
2022-12-22T03:00:21.020Z,99935.38
2022-12-22T03:03:06.363Z,99935.38
2022-12-22T03:05:51.539Z,99933.66
2022-12-22T03:08:36.652Z,99929.34
2022-12-22T03:11:21.819Z,99932.78
2022-12-22T03:14:07.023Z,99927.63
2022-12-22T03:16:51.991Z,99921.66
2022-12-22T03:19:36.997Z,99906.19
2022-12-22T03:22:21.977Z,99909.59
2022-12-22T03:25:07.042Z,99909.69
2022-12-22T03:27:33.470Z,99916.59
2022-12-22T03:29:59.888Z,99908.81
2022-12-22T03:32:26.315Z,99896.81
2022-12-22T03:34:52.778Z,99893.41
2022-12-22T03:37:19.183Z,99890.06
2022-12-22T03:39:45.563Z,99880.56
2022-12-22T03:42:30.751Z,99883.97
2022-12-22T03:45:15.730Z,99890.81
2022-12-22T03:47:42.191Z,99879.69
2022-12-22T03:50:08.707Z,99869.31
2022-12-22T03:52:35.173Z,99876.19
2022-12-22T03:55:01.577Z,99868.50
2022-12-22T03:57:27.987Z,99863.28
2022-12-22T03:59:54.423Z,99865.03
2022-12-22T04:02:20.876Z,99852.97
2022-12-22T04:04:47.365Z,99852.16
2022-12-22T04:07:13.785Z,99854.72
2022-12-22T04:10:00.181Z,99853.09
2022-12-22T04:12:45.216Z,99852.97
2022-12-22T04:15:11.611Z,99851.22
2022-12-22T04:17:38.029Z,99848.66
2022-12-22T04:20:04.739Z,99851.22
2022-12-22T04:22:31.181Z,99848.59
2022-12-22T04:24:57.593Z,99840.81
2022-12-22T04:27:24.008Z,99837.25
2022-12-22T04:29:50.415Z,99832.13
2022-12-22T04:32:16.868Z,99829.63
2022-12-22T04:34:43.301Z,99823.63
2022-12-22T04:37:16.720Z,99819.31
2022-12-22T04:39:43.777Z,99827.84
2022-12-22T04:42:10.183Z,99826.97
2022-12-22T04:44:36.636Z,99820.94
2022-12-22T04:47:03.044Z,99827.78
2022-12-22T04:49:29.446Z,99817.47
2022-12-22T04:51:55.864Z,99815.72
2022-12-22T04:54:22.291Z,99809.72
2022-12-22T04:56:48.764Z,99795.09
2022-12-22T04:59:15.202Z,99794.16
2022-12-22T05:01:41.771Z,99795.91
2022-12-22T05:04:08.307Z,99799.44
2022-12-22T05:06:34.859Z,99796.91
2022-12-22T05:09:01.260Z,99803.06
2022-12-22T05:11:27.819Z,99789.34
2022-12-22T05:13:54.217Z,99784.31
2022-12-22T05:16:20.673Z,99779.16
2022-12-22T05:18:47.184Z,99775.69
2022-12-22T05:21:15.995Z,99776.66
2022-12-22T05:23:42.537Z,99778.56
2022-12-22T05:26:09.491Z,99773.44
2022-12-22T05:28:36.319Z,99780.41
2022-12-22T05:31:08.044Z,99765.78
2022-12-22T05:33:34.453Z,99759.78
2022-12-22T05:36:01.774Z,99761.53
2022-12-22T05:38:28.398Z,99758.97
2022-12-22T05:41:01.520Z,99756.38
2022-12-22T05:43:30.204Z,99740.91
2022-12-22T05:45:58.562Z,99736.59
2022-12-22T05:48:30.793Z,99728.75
2022-12-22T05:51:00.235Z,99723.50
2022-12-22T05:53:26.638Z,99719.19
2022-12-22T05:55:53.125Z,99717.38
2022-12-22T05:58:19.574Z,99720.78
2022-12-22T06:00:46.174Z,99713.03
2022-12-22T06:03:12.670Z,99727.59
2022-12-22T06:05:39.567Z,99713.78
2022-12-22T06:08:05.987Z,99726.66
2022-12-22T06:10:32.391Z,99707.69
2022-12-22T06:12:58.805Z,99707.63
2022-12-22T06:15:25.255Z,99701.53
2022-12-22T06:17:51.653Z,99705.81
2022-12-22T06:20:18.072Z,99697.19
2022-12-22T06:22:44.486Z,99701.47
2022-12-22T06:25:17.714Z,99706.63
2022-12-22T06:27:45.052Z,99698.06
2022-12-22T06:30:11.747Z,99699.06
2022-12-22T06:32:39.244Z,99699.19
2022-12-22T06:35:07.594Z,99695.00
2022-12-22T06:37:34.106Z,99694.22
2022-12-22T06:40:00.517Z,99692.56
2022-12-22T06:42:45.597Z,99693.47
2022-12-22T06:45:12.011Z,99689.25
2022-12-22T06:47:38.442Z,99685.00
2022-12-22T06:50:05.613Z,99685.00
2022-12-22T06:52:32.039Z,99684.22
2022-12-22T06:54:58.440Z,99680.81
2022-12-22T06:57:24.848Z,99692.13
2022-12-22T06:59:57.212Z,99687.91
2022-12-22T07:02:24.292Z,99678.47
2022-12-22T07:04:50.965Z,99682.03
2022-12-22T07:07:17.380Z,99672.63
2022-12-22T07:09:43.777Z,99673.50
2022-12-22T07:12:10.251Z,99669.28
2022-12-22T07:14:36.732Z,99667.56
2022-12-22T07:17:03.197Z,99670.16
2022-12-22T07:19:29.629Z,99670.97
2022-12-22T07:21:56.073Z,99669.28
2022-12-22T07:24:25.739Z,99672.69
2022-12-22T07:26:52.744Z,99664.06
2022-12-22T07:29:19.210Z,99670.09
2022-12-22T07:31:45.757Z,99658.94
2022-12-22T07:34:12.593Z,99658.13
2022-12-22T07:36:39.015Z,99665.91
2022-12-22T07:39:05.421Z,99652.09
2022-12-22T07:41:50.420Z,99665.81
2022-12-22T07:44:16.809Z,99648.63
2022-12-22T07:46:43.256Z,99646.09
2022-12-22T07:49:29.799Z,99640.91
2022-12-22T07:51:57.683Z,99651.25
2022-12-22T07:54:24.291Z,99637.53
2022-12-22T07:56:50.834Z,99640.94
2022-12-22T07:59:18.344Z,99633.38
2022-12-22T08:01:45.793Z,99635.13
2022-12-22T08:04:13.580Z,99636.84
2022-12-22T08:06:40.524Z,99634.34
2022-12-22T08:09:08.005Z,99622.38
2022-12-22T08:11:34.686Z,99627.56
2022-12-22T08:14:02.066Z,99625.88
2022-12-22T08:16:29.221Z,99622.53
2022-12-22T08:18:56.146Z,99620.91
2022-12-22T08:21:23.051Z,99620.13
2022-12-22T08:23:50.514Z,99620.19
2022-12-22T08:26:22.330Z,99619.34
2022-12-22T08:29:12.669Z,99624.56
2022-12-22T08:31:40.018Z,99614.28
2022-12-22T08:34:08.301Z,99614.28
2022-12-22T08:36:40.047Z,99610.88
2022-12-22T08:39:07.526Z,99607.41
2022-12-22T08:41:52.773Z,99604.03
2022-12-22T08:44:29.086Z,99605.00
2022-12-22T08:46:58.275Z,99608.44
2022-12-22T08:49:25.385Z,99604.13
2022-12-22T08:51:52.084Z,99597.13
2022-12-22T08:54:18.714Z,99602.22
2022-12-22T08:56:45.646Z,99594.44
2022-12-22T08:59:12.700Z,99595.31
2022-12-22T09:01:42.618Z,99592.69
2022-12-22T09:04:09.577Z,99594.38
2022-12-22T09:06:40.939Z,99593.50
2022-12-22T09:09:09.963Z,99590.88
2022-12-22T09:11:36.525Z,99589.22
2022-12-22T09:14:03.999Z,99597.00
2022-12-22T09:16:32.234Z,99599.59
2022-12-22T09:18:59.323Z,99596.19
2022-12-22T09:21:25.818Z,99594.47
2022-12-22T09:23:52.622Z,99590.22
2022-12-22T09:26:21.236Z,99591.31
2022-12-22T09:28:50.414Z,99587.09
2022-12-22T09:31:18.456Z,99585.56
2022-12-22T09:33:44.945Z,99578.84
2022-12-22T09:36:14.377Z,99575.53
2022-12-22T09:38:41.441Z,99575.66
2022-12-22T09:41:16.537Z,99568.91
2022-12-22T09:43:43.153Z,99574.25
2022-12-22T09:46:30.445Z,99577.91
2022-12-22T09:48:56.986Z,99577.19
2022-12-22T09:51:27.202Z,99571.44
2022-12-22T09:53:57.904Z,99563.75
2022-12-22T09:56:26.458Z,99569.00
2022-12-22T09:58:52.877Z,99568.25
2022-12-22T10:01:41.229Z,99559.78
2022-12-22T10:04:20.801Z,99561.59
2022-12-22T10:07:20.188Z,99557.47
2022-12-22T10:09:50.798Z,99562.84
2022-12-22T10:12:22.199Z,99561.31
2022-12-22T10:14:50.382Z,99568.25
2022-12-22T10:17:29.119Z,99564.03
2022-12-22T10:20:19.195Z,99548.63
2022-12-22T10:22:49.242Z,99553.94
2022-12-22T10:28:28.728Z,99542.03
2022-12-22T10:31:13.881Z,99536.00
2022-12-22T10:33:46.435Z,99547.28
2022-12-22T10:36:15.407Z,99546.41
2022-12-22T10:39:01.977Z,99544.72
2022-12-22T10:41:44.929Z,99543.81
2022-12-22T10:44:20.608Z,99546.41
2022-12-22T10:46:51.664Z,99551.56
2022-12-22T10:52:42.803Z,99548.16
2022-12-22T10:55:19.212Z,99543.84
2022-12-22T10:57:45.704Z,99554.28
2022-12-22T11:00:24.533Z,99551.81
2022-12-22T11:02:53.007Z,99548.38
2022-12-22T11:05:19.532Z,99557.94
2022-12-22T11:07:47.489Z,99545.13
2022-12-22T11:10:22.999Z,99551.19
2022-12-22T11:13:07.718Z,99554.69
2022-12-22T11:15:38.904Z,99551.31
2022-12-22T11:18:40.598Z,99548.75
2022-12-22T11:21:23.758Z,99550.53
2022-12-22T11:24:03.327Z,99543.72
2022-12-22T11:26:35.857Z,99550.69
2022-12-22T11:29:22.420Z,99539.53
2022-12-22T11:32:28.925Z,99538.75
2022-12-22T11:35:05.853Z,99542.25
2022-12-22T11:37:48.486Z,99541.41
2022-12-22T11:40:38.149Z,99537.16
2022-12-22T11:43:42.285Z,99534.56
2022-12-22T11:46:19.194Z,99541.56
2022-12-22T11:48:57.608Z,99546.72
2022-12-22T11:51:48.943Z,99543.25
2022-12-22T11:54:29.977Z,99540.63
2022-12-22T11:57:04.828Z,99544.06
2022-12-22T12:00:04.106Z,99545.81
2022-12-22T12:02:52.121Z,99545.81
2022-12-22T12:05:39.555Z,99558.75
2022-12-22T12:08:27.127Z,99551.81
2022-12-22T12:11:01.347Z,99553.50
2022-12-22T12:13:43.180Z,99562.16
2022-12-22T12:16:31.357Z,99564.69
2022-12-22T12:19:28.567Z,99559.47
2022-12-22T12:21:58.185Z,99562.03
2022-12-22T12:24:38.139Z,99565.50
2022-12-22T12:27:33.915Z,99578.47
2022-12-22T12:30:37.425Z,99580.06
2022-12-22T12:32:56.645Z,99582.69
2022-12-22T12:35:51.946Z,99592.19
2022-12-22T12:39:08.904Z,99606.84
2022-12-22T12:41:56.575Z,99599.91
2022-12-22T12:44:25.853Z,99597.41
2022-12-22T12:46:55.282Z,99606.06
2022-12-22T12:49:33.955Z,99607.00
2022-12-22T12:52:10.543Z,99607.91
2022-12-22T12:54:39.623Z,99610.66
2022-12-22T12:57:27.427Z,99619.31
2022-12-22T12:59:59.091Z,99617.63
2022-12-22T13:02:29.783Z,99628.91
2022-12-22T13:05:13.089Z,99621.22
2022-12-22T13:08:07.714Z,99641.09
2022-12-22T13:10:38.485Z,99646.25
2022-12-22T13:13:05.639Z,99646.22
2022-12-22T13:15:34.650Z,99654.81
2022-12-22T13:18:03.480Z,99662.63
2022-12-22T13:20:33.932Z,99662.63
2022-12-22T13:23:02.536Z,99671.16
2022-12-22T13:25:50.810Z,99679.97
2022-12-22T13:28:18.317Z,99691.06
2022-12-22T13:30:51.849Z,99698.84
2022-12-22T13:33:20.627Z,99701.41
2022-12-22T13:35:52.156Z,99710.91
2022-12-22T13:38:37.645Z,99711.66
2022-12-22T13:41:13.451Z,99721.88
2022-12-22T13:43:42.787Z,99725.38
2022-12-22T13:46:09.433Z,99740.81
2022-12-22T13:48:44.237Z,99741.56
2022-12-22T13:51:21.887Z,99749.44
2022-12-22T13:54:08.542Z,99752.03
2022-12-22T13:56:38.081Z,99746.84
2022-12-22T13:59:21.652Z,99760.66
2022-12-22T14:01:52.300Z,99754.69
2022-12-22T14:04:18.845Z,99760.72
2022-12-22T14:06:45.362Z,99771.06
2022-12-22T14:09:25.663Z,99765.06
2022-12-22T14:12:01.438Z,99768.44
2022-12-22T14:14:41.323Z,99763.25
2022-12-22T14:17:21.849Z,99760.66
2022-12-22T14:19:51.182Z,99771.00
2022-12-22T14:22:21.285Z,99772.75
2022-12-22T14:24:48.853Z,99777.06
2022-12-22T14:27:24.380Z,99784.84
2022-12-22T14:29:51.086Z,99789.13
2022-12-22T14:32:43.805Z,99795.97
2022-12-22T14:35:21.191Z,99802.81
2022-12-22T14:37:48.895Z,99803.66
2022-12-22T14:40:38.101Z,99827.66
2022-12-22T14:43:07.989Z,99826.75
2022-12-22T14:45:34.489Z,99832.00
2022-12-22T14:48:16.123Z,99829.34
2022-12-22T14:50:57.211Z,99832.81
2022-12-22T14:53:30.302Z,99827.50
2022-12-22T14:55:56.911Z,99837.81
2022-12-22T14:58:34.596Z,99854.19
2022-12-22T15:01:25.293Z,99850.59
2022-12-22T15:04:04.340Z,99848.00
2022-12-22T15:06:41.938Z,99849.69
2022-12-22T15:09:15.064Z,99858.31
2022-12-22T15:11:47.075Z,99862.56
2022-12-22T15:14:19.501Z,99860.81
2022-12-22T15:16:46.347Z,99862.50
2022-12-22T15:19:14.553Z,99871.03
2022-12-22T15:21:41.106Z,99876.22
2022-12-22T15:24:12.506Z,99884.06
2022-12-22T15:26:39.152Z,99890.88
2022-12-22T15:29:06.018Z,99897.81
2022-12-22T15:31:32.886Z,99884.06
2022-12-22T15:34:01.562Z,99894.41
2022-12-22T15:36:28.306Z,99883.09
2022-12-22T15:38:54.973Z,99898.50
2022-12-22T15:41:21.552Z,99895.88
2022-12-22T15:44:03.584Z,99906.13
2022-12-22T15:46:30.207Z,99909.47
2022-12-22T15:48:57.089Z,99908.44
2022-12-22T15:51:29.293Z,99917.75
2022-12-22T15:53:56.248Z,99917.59
2022-12-22T15:56:27.668Z,99935.56
2022-12-22T15:58:55.265Z,99944.06
2022-12-22T16:01:21.795Z,99943.91
2022-12-22T16:03:48.501Z,99955.88
2022-12-22T16:06:16.645Z,99955.66
2022-12-22T16:08:47.305Z,99958.22
2022-12-22T16:11:14.171Z,99958.94
2022-12-22T16:13:40.747Z,99973.38
2022-12-22T16:16:08.648Z,99969.72
2022-12-22T16:18:35.600Z,99977.28
2022-12-22T16:21:08.124Z,99967.53
2022-12-22T16:23:36.016Z,99957.88
2022-12-22T16:26:04.236Z,99967.22
2022-12-22T16:28:31.122Z,99961.97
2022-12-22T16:30:57.855Z,99969.66
2022-12-22T16:33:24.404Z,99971.25
2022-12-22T16:35:50.986Z,99971.94
2022-12-22T16:38:19.349Z,99964.94
2022-12-22T16:40:53.462Z,99967.47
2022-12-22T16:46:13.552Z,99967.91
2022-12-22T16:48:42.481Z,99972.03
2022-12-22T16:51:18.463Z,99979.66
2022-12-22T16:53:45.084Z,99981.16
2022-12-22T16:56:21.101Z,99987.88
2022-12-22T16:58:48.223Z,99989.38
2022-12-22T17:01:36.414Z,99990.03
2022-12-22T17:04:07.110Z,99990.81
2022-12-22T17:06:34.761Z,99999.22
2022-12-22T17:09:03.613Z,99991.31
2022-12-22T17:11:32.667Z,99999.00
2022-12-22T17:14:06.536Z,100000.56
2022-12-22T17:16:33.112Z,99993.44
2022-12-22T17:18:59.719Z,100001.84
2022-12-22T17:21:28.566Z,100011.91
2022-12-22T17:23:55.246Z,100005.69
2022-12-22T17:26:24.808Z,100008.97
2022-12-22T17:28:52.253Z,100000.97
2022-12-22T17:31:24.265Z,99993.94
2022-12-22T17:33:50.927Z,99994.72
2022-12-22T17:36:27.269Z,99987.75
2022-12-22T17:38:54.135Z,99988.41
2022-12-22T17:41:20.854Z,99988.31
2022-12-22T17:43:47.484Z,99986.53
2022-12-22T17:46:16.133Z,99981.28
2022-12-22T17:48:43.198Z,99984.69
2022-12-22T17:51:24.532Z,99987.09
2022-12-22T17:53:52.193Z,99980.19
2022-12-22T17:56:20.769Z,99974.94
2022-12-22T17:58:47.548Z,99974.88
2022-12-22T18:01:29.696Z,99978.25
2022-12-22T18:03:56.629Z,99979.97
2022-12-22T18:06:26.891Z,99979.09
2022-12-22T18:08:54.661Z,99972.22
2022-12-22T18:11:22.000Z,99972.22
2022-12-22T18:13:48.801Z,99973.13
2022-12-22T18:16:17.399Z,99977.44
2022-12-22T18:18:44.773Z,99970.53
2022-12-22T18:21:19.996Z,99982.53
2022-12-22T18:23:51.065Z,99974.81
2022-12-22T18:26:24.691Z,99973.00
2022-12-22T18:28:51.465Z,99970.34
2022-12-22T18:31:18.627Z,99973.75
2022-12-22T18:33:46.903Z,99966.81
2022-12-22T18:36:17.384Z,99964.19
2022-12-22T18:38:45.674Z,99971.91
2022-12-22T18:41:16.342Z,99965.88
2022-12-22T18:43:42.873Z,99956.38
2022-12-22T18:46:11.114Z,99950.25
2022-12-22T18:48:37.672Z,99954.47
2022-12-22T18:51:06.580Z,99946.63
2022-12-22T18:53:33.453Z,99955.00
2022-12-22T18:56:00.275Z,99954.00
2022-12-22T18:58:27.251Z,99966.88
2022-12-22T19:00:55.090Z,99968.59
2022-12-22T19:03:24.234Z,99970.28
2022-12-22T19:05:51.293Z,99970.22
2022-12-22T19:08:19.683Z,99965.97
2022-12-22T19:10:51.602Z,99966.78
2022-12-22T19:13:33.474Z,99966.78
2022-12-22T19:16:00.406Z,99966.66
2022-12-22T19:18:27.871Z,99959.81
2022-12-22T19:20:55.712Z,99961.50
2022-12-22T19:23:23.921Z,99954.59
2022-12-22T19:26:08.145Z,99952.03
2022-12-22T19:28:38.171Z,99952.03
2022-12-22T19:31:10.345Z,99940.75
2022-12-22T19:33:43.797Z,99939.03
2022-12-22T19:36:19.829Z,99938.16
2022-12-22T19:38:50.443Z,99935.53
2022-12-22T19:41:50.540Z,99935.47
2022-12-22T19:44:22.580Z,99944.84
2022-12-22T19:46:49.875Z,99946.53
2022-12-22T19:49:25.103Z,99938.81
2022-12-22T19:51:51.716Z,99943.09
2022-12-22T19:54:19.610Z,99937.94
2022-12-22T19:56:52.383Z,99937.06
2022-12-22T19:59:29.583Z,99935.28
2022-12-22T20:01:58.123Z,99931.78
2022-12-22T20:04:25.096Z,99932.66
2022-12-22T20:06:51.711Z,99935.13
2022-12-22T20:09:18.314Z,99929.06
2022-12-22T20:11:44.998Z,99925.59
2022-12-22T20:14:18.895Z,99924.72
2022-12-22T20:16:45.536Z,99913.53
2022-12-22T20:19:15.625Z,99900.56
2022-12-22T20:21:42.210Z,99908.28
2022-12-22T20:24:13.351Z,99904.88
2022-12-22T20:26:39.912Z,99911.78
2022-12-22T20:29:06.479Z,99904.06
2022-12-22T20:31:33.162Z,99902.25
2022-12-22T20:34:01.139Z,99899.63
2022-12-22T20:36:31.930Z,99897.84
2022-12-22T20:38:59.682Z,99891.78
2022-12-22T20:41:26.702Z,99887.44
2022-12-22T20:43:53.856Z,99892.59
2022-12-22T20:46:23.823Z,99878.78
2022-12-22T20:48:55.939Z,99879.56
2022-12-22T20:51:24.189Z,99879.50
2022-12-22T20:53:51.988Z,99883.78
2022-12-22T20:56:28.625Z,99880.31
2022-12-22T20:58:55.737Z,99878.63
2022-12-22T21:01:23.644Z,99878.63
2022-12-22T21:03:50.447Z,99882.97
2022-12-22T21:06:20.068Z,99877.91
2022-12-22T21:08:46.723Z,99889.19
2022-12-22T21:11:13.233Z,99884.97
2022-12-22T21:13:39.811Z,99887.56
2022-12-22T21:16:11.599Z,99889.19
2022-12-22T21:18:38.128Z,99882.28
2022-12-22T21:21:04.645Z,99878.03
2022-12-22T21:23:32.313Z,99876.31
2022-12-22T21:25:58.860Z,99869.47
2022-12-22T21:28:36.129Z,99879.03
2022-12-22T21:31:03.479Z,99871.34
2022-12-22T21:33:30.806Z,99869.66
2022-12-22T21:35:58.740Z,99864.56
2022-12-22T21:38:28.008Z,99851.75
2022-12-22T21:40:54.774Z,99848.34
2022-12-22T21:43:21.369Z,99845.88
2022-12-22T21:45:49.229Z,99834.69
2022-12-22T21:48:20.804Z,99844.03
2022-12-22T21:50:50.224Z,99841.44
2022-12-22T21:53:22.344Z,99837.13
2022-12-22T21:55:49.583Z,99839.69
2022-12-22T21:58:16.142Z,99838.88
2022-12-22T22:00:46.248Z,99838.06
2022-12-22T22:03:14.229Z,99817.44
2022-12-22T22:05:41.076Z,99829.41
2022-12-22T22:08:09.751Z,99825.88
2022-12-22T22:10:43.554Z,99824.13
2022-12-22T22:13:15.313Z,99819.84
2022-12-22T22:15:42.636Z,99825.13
2022-12-22T22:18:15.047Z,99822.75
2022-12-22T22:20:41.808Z,99812.56
2022-12-22T22:23:11.718Z,99812.69
2022-12-22T22:25:38.318Z,99801.59
2022-12-22T22:28:04.880Z,99807.78
2022-12-22T22:30:31.435Z,99806.97
2022-12-22T22:32:58.023Z,99801.00
2022-12-22T22:35:27.765Z,99803.63
2022-12-22T22:37:55.208Z,99799.41
2022-12-22T22:40:22.651Z,99804.59
2022-12-22T22:42:49.222Z,99797.81
2022-12-22T22:45:19.965Z,99790.03
2022-12-22T22:47:46.505Z,99790.09
2022-12-22T22:50:13.334Z,99783.34
2022-12-22T22:52:42.043Z,99785.00
2022-12-22T22:55:09.004Z,99773.03
2022-12-22T22:57:35.637Z,99762.69
2022-12-22T23:00:02.455Z,99760.97
2022-12-22T23:02:29.170Z,99755.84
2022-12-22T23:04:55.810Z,99768.81
2022-12-22T23:07:22.454Z,99762.75
2022-12-22T23:09:49.064Z,99755.91
2022-12-22T23:12:15.890Z,99758.50
2022-12-22T23:14:42.437Z,99749.06
2022-12-22T23:17:08.973Z,99738.75
2022-12-22T23:19:35.480Z,99737.06
2022-12-22T23:22:02.026Z,99744.78
2022-12-22T23:24:28.558Z,99731.91
2022-12-22T23:26:55.108Z,99745.72
2022-12-22T23:29:21.699Z,99729.38
2022-12-22T23:31:48.325Z,99731.19
2022-12-22T23:34:15.354Z,99722.59
2022-12-22T23:36:41.970Z,99722.59
2022-12-22T23:39:08.386Z,99718.25
2022-12-22T23:41:34.927Z,99713.97
2022-12-22T23:44:01.371Z,99710.59
2022-12-22T23:46:27.830Z,99709.75
2022-12-22T23:48:56.126Z,99709.75
2022-12-22T23:51:24.623Z,99701.22
2022-12-22T23:53:51.022Z,99702.97
2022-12-22T23:56:17.464Z,99695.22
2022-12-22T23:58:44.776Z,99700.44
